Norcatur, KS (67653)

4:37 AM CST on February 08, 2016 (GMT -0600)
HADS | | Change Station
CLOSE
Current Station
Personal Weather Station
Location: Norcatur, KS
Elevation: 2350 ft
Nearby Weather Stations

Elev 2350 ft 39.77 °N, 100.10 °W | Updated 52 minutes ago

Clear
Clear
25.0 °F
Feels Like 25.0 °F
N
0.0
Wind Variable Wind from North
Gusts 0.0 mph

Today
High -- | Low -- °F
--% Chance of Precip.
Yesterday
High -- | Low -- °F
Precip. -- in
Pressure 30.34 in
Visibility 10.0 miles
Clouds Clear
Dew Point Not available.
Humidity Not available.
Rainfall in
Snow Depth Not available.
7:42 AM 6:08 PM
Waning Crescent, 0% visible
METAR KMCK 080953Z AUTO 30013KT 10SM CLR M04/M11 A3027 RMK AO2 SLP272 T10441106
Pressure 30.34 in
Visibility 10.0 miles
Clouds Clear
Dew Point Not available.
Humidity Not available.
Rainfall in
Snow Depth Not available.
7:42 AM 6:08 PM
Waning Crescent, 0% visible
METAR KMCK 080953Z AUTO 30013KT 10SM CLR M04/M11 A3027 RMK AO2 SLP272 T10441106

10-Day Weather Forecast

Almanac

Astronomy

Feb. 08, 2016 Rise Set
Actual Time
Civil Twilight
Nautical Twilight
Astronomical Twilight
Moon
Length of Visible Light
Length of Day
Tomorrow will be .
, % of the Moon is Illuminated

Today's Extremes

State Highs State Lows

Community

WunderPhotos

Upload Photos

1,891,420 photos uploaded!

WunderBlog® & News

Nearby

Air Quality

  Air Quality AQ Index Pollutant
Not available.

Snow Depth

Station Depth Elevation

Earthquake Activity

City Distance Mag. Time & Date
Minimum magnitude displayed is 2.5.

Coastal Water Temperatures

Place Temperature

Stations

Nearby Weather Stations

Station Location Temp. Windchill Dew Point Humidity Wind Precip. Elev Updated Type
                   

Watches & Warnings

There are currently no watches in effect.